This is the latest recevied weather packets stored in our database for station/object SR6WXJG. If no packets are shown the sender has not sent any weather packets the latest 10 day(s).
| Time | Temp. | Humidity | Pressure | Rain* | Wind** | Luminosity | Snow |
|---|---|---|---|---|---|---|---|
| 1777821580 | 25° C | 28% | 1013 hPa | 0 mm | - | - | - |
| 1777820679 | 25° C | 27% | 1013 hPa | 0 mm | - | - | - |
| 1777819779 | 25° C | 34% | 1013 hPa | 0 mm | - | - | - |
| 1777818879 | 25° C | 34% | 1013 hPa | 0 mm | - | - | - |
| 1777817978 | 25.56° C | 26% | 1014 hPa | 0 mm | - | - | - |
| 1777817078 | 25° C | 31% | 1014 hPa | 0 mm | - | - | - |
| 1777816178 | 25° C | 31% | 1014 hPa | 0 mm | - | - | - |
| 1777815277 | 25° C | 32% | 1014 hPa | 0 mm | - | - | - |
| 1777814377 | 25.56° C | 28% | 1014 hPa | 0 mm | - | - | - |
| 1777813477 | 25° C | 32% | 1015 hPa | 0 mm | - | - | - |
| 1777812576 | 25° C | 32% | 1015 hPa | 0 mm | - | - | - |
| 1777811676 | 25° C | 32% | 1015 hPa | 0 mm | - | - | - |
| 1777810775 | 25° C | 29% | 1016 hPa | 0 mm | - | - | - |
| 1777809875 | 24.44° C | 30% | 1016 hPa | 0 mm | - | - | - |
| 1777808975 | 24.44° C | 32% | 1015 hPa | 0 mm | - | - | - |
| 1777808074 | 24.44° C | 32% | 1015 hPa | 0 mm | - | - | - |
| 1777807174 | 23.89° C | 30% | 1016 hPa | 0 mm | - | - | - |
| 1777806273 | 23.33° C | 33% | 1016 hPa | 0 mm | - | - | - |
| 1777805373 | 23.33° C | 33% | 1016 hPa | 0 mm | - | - | - |
| 1777804473 | 23.33° C | 34% | 1016 hPa | 0 mm | - | - | - |
| 1777803573 | 22.78° C | 33% | 1017 hPa | 0 mm | - | - | - |
| 1777802672 | 22.22° C | 36% | 1017 hPa | 0 mm | - | - | - |
| 1777801772 | 22.22° C | 36% | 1017 hPa | 0 mm | - | - | - |
| 1777800871 | 22.22° C | 36% | 1017 hPa | 0 mm | - | - | - |
| 1777799971 | 21.67° C | 37% | 1018 hPa | 0 mm | - | - | - |
* Rain latest hour (hover to see other rain measurements)
** Current wind speed in m/s (hover to see current wind gust speed)